Accueil
METAR-TAF:

METAR-TAF

Aéroports :

RAF

Holbeach, Angleterre

latitude: 52-52N, longitude: 000-09E, altitude: 3 m

Observation

Le bulletin a été fait il y a 1 heure et 2 minutes, à 08:50 UTC
Vent 7 kt de ouest/sud-ouest
Température 1°C
Humidité 100%
Pression 1041 hPa
Visibilité: 9000 m
Quelques nuages à une hauteur de 4500 ft
brume

METAR: EGYH 210850Z 24007KT 9000 BR FEW045 01/01 Q1041 RMK BLU

Heure: 09:52 (09:52 UTC)


TAF: absent

Observations et prévisions météorologiques de plus de 4000 aéroports (messages METAR et TAF).

Les stations disponibles sont représentées par des disques jaunes et rouges sur la carte.

Passer la souris dessus pour voir le nom de la station.

Cliquer dessus pour voir les observations et prévisions météorologiques.

Pour changer de carte: cliquez sur les boutons verts avec une croix noire pour zoomer, sur le bouton vert avec un tiret pour effectuer un zoom arrière, ou sur les flèches vertes pour les cartes adjacentes.


METAR-TAF: